createdAt,value
2022-10-08T00:00:51.654Z,80.80
2022-10-08T00:04:33.945Z,81.20
2022-10-08T00:08:15.882Z,81.20
2022-10-08T00:11:57.849Z,81.10
2022-10-08T00:15:40.378Z,81.20
2022-10-08T00:19:22.183Z,81.40
2022-10-08T00:23:04.018Z,81.60
2022-10-08T00:26:46.109Z,81.70
2022-10-08T00:30:27.942Z,81.70
2022-10-08T00:34:16.347Z,82.00
2022-10-08T00:37:58.937Z,82.20
2022-10-08T00:41:41.678Z,82.40
2022-10-08T00:45:23.710Z,82.40
2022-10-08T00:49:20.326Z,82.70
2022-10-08T00:53:07.746Z,82.70
2022-10-08T00:56:52.537Z,83.00
2022-10-08T01:00:34.471Z,83.00
2022-10-08T01:04:16.574Z,83.00
2022-10-08T01:08:08.254Z,83.30
2022-10-08T01:11:58.155Z,83.30
2022-10-08T01:16:03.207Z,83.50
2022-10-08T01:19:48.995Z,83.40
2022-10-08T01:23:55.454Z,83.60
2022-10-08T01:27:43.705Z,83.60
2022-10-08T01:31:33.991Z,84.00
2022-10-08T01:35:25.700Z,84.30
2022-10-08T01:39:13.009Z,84.50
2022-10-08T01:42:59.106Z,84.60
2022-10-08T01:46:45.013Z,84.70
2022-10-08T01:50:33.534Z,84.70
2022-10-08T01:54:19.271Z,85.00
2022-10-08T01:58:04.814Z,85.20
2022-10-08T02:01:52.219Z,85.20
2022-10-08T02:05:37.633Z,84.80
2022-10-08T02:09:19.550Z,84.60
2022-10-08T02:13:01.735Z,84.30
2022-10-08T02:16:54.711Z,84.20
2022-10-08T02:20:44.725Z,84.10
2022-10-08T02:24:39.964Z,84.50
2022-10-08T02:28:37.360Z,84.70
2022-10-08T02:32:23.702Z,85.00
2022-10-08T02:36:08.450Z,85.50
2022-10-08T02:40:02.491Z,86.00
2022-10-08T02:43:47.820Z,86.10
2022-10-08T02:47:33.054Z,85.20
2022-10-08T02:51:18.709Z,84.70
2022-10-08T02:55:01.989Z,85.40
2022-10-08T02:58:44.224Z,85.60
2022-10-08T03:02:37.885Z,85.70
2022-10-08T03:06:20.111Z,85.30
2022-10-08T03:10:05.958Z,85.00
2022-10-08T03:13:50.090Z,84.90
2022-10-08T03:17:37.182Z,85.00
2022-10-08T03:21:19.238Z,85.00
2022-10-08T03:25:01.495Z,85.10
2022-10-08T03:28:43.332Z,85.50
2022-10-08T03:32:25.938Z,85.80
2022-10-08T03:36:07.842Z,86.10
2022-10-08T03:39:49.664Z,86.20
2022-10-08T03:43:33.667Z,86.40
2022-10-08T03:47:15.634Z,86.60
2022-10-08T03:51:03.324Z,86.90
2022-10-08T03:54:45.160Z,87.20
2022-10-08T03:58:26.998Z,87.60
2022-10-08T04:02:08.928Z,87.90
2022-10-08T04:05:50.989Z,88.20
2022-10-08T04:09:32.807Z,88.40
2022-10-08T04:13:15.796Z,88.50
2022-10-08T04:16:57.912Z,88.70
2022-10-08T04:20:43.417Z,88.80
2022-10-08T04:24:25.383Z,89.50
2022-10-08T04:28:07.236Z,89.50
2022-10-08T04:31:49.074Z,89.70
2022-10-08T04:35:30.915Z,89.80
2022-10-08T04:39:12.868Z,89.90
2022-10-08T04:42:54.701Z,90.00
2022-10-08T04:46:36.700Z,90.00
2022-10-08T04:50:18.587Z,90.00
2022-10-08T04:54:01.789Z,90.00
2022-10-08T04:57:43.598Z,90.10
2022-10-08T05:01:27.001Z,90.10
2022-10-08T05:05:09.231Z,90.10
2022-10-08T05:08:51.600Z,90.10
2022-10-08T05:12:33.521Z,90.10
2022-10-08T05:16:17.349Z,90.00
2022-10-08T05:19:59.207Z,89.80
2022-10-08T05:23:44.839Z,89.60
2022-10-08T05:27:26.685Z,89.50
2022-10-08T05:31:08.656Z,89.50
2022-10-08T05:34:50.489Z,89.70
2022-10-08T05:38:34.977Z,90.00
2022-10-08T05:42:17.159Z,90.00
2022-10-08T05:45:58.997Z,90.00
2022-10-08T05:49:40.804Z,90.10
2022-10-08T05:53:22.631Z,90.20
2022-10-08T05:57:04.665Z,90.30
2022-10-08T06:01:00.241Z,90.20
2022-10-08T06:04:42.149Z,90.10
2022-10-08T06:08:24.003Z,90.00
2022-10-08T06:12:06.828Z,90.10
2022-10-08T06:16:07.175Z,90.10
2022-10-08T06:19:49.055Z,90.00
2022-10-08T06:23:31.015Z,90.20
2022-10-08T06:27:12.843Z,90.30
2022-10-08T06:30:54.688Z,90.40
2022-10-08T06:34:36.575Z,90.70
2022-10-08T06:38:18.928Z,90.90
2022-10-08T06:42:00.737Z,90.90
2022-10-08T06:45:44.310Z,91.10
2022-10-08T06:49:26.801Z,91.20
2022-10-08T06:53:10.092Z,91.40
2022-10-08T06:56:51.904Z,91.40
2022-10-08T07:00:33.797Z,91.50
2022-10-08T07:04:15.649Z,91.60
2022-10-08T07:07:57.493Z,91.70
2022-10-08T07:11:39.622Z,91.80
2022-10-08T07:15:21.481Z,91.90
2022-10-08T07:19:03.496Z,92.00
2022-10-08T07:22:45.665Z,92.20
2022-10-08T07:26:32.391Z,92.30
2022-10-08T07:30:14.414Z,92.40
2022-10-08T07:33:57.471Z,92.50
2022-10-08T07:37:42.763Z,92.70
2022-10-08T07:41:25.741Z,92.90
2022-10-08T07:45:08.170Z,93.20
2022-10-08T07:48:50.944Z,93.40
2022-10-08T07:52:32.748Z,93.70
2022-10-08T07:56:17.190Z,93.90
2022-10-08T07:59:59.057Z,94.10
2022-10-08T08:03:40.961Z,94.10
2022-10-08T08:07:22.790Z,94.40
2022-10-08T08:11:06.736Z,94.50
2022-10-08T08:14:48.563Z,94.50
2022-10-08T08:18:32.343Z,94.70
2022-10-08T08:22:14.151Z,95.10
2022-10-08T08:25:55.927Z,96.50
2022-10-08T08:29:37.758Z,97.40
2022-10-08T08:33:19.565Z,97.50
2022-10-08T08:37:01.404Z,97.20
2022-10-08T08:40:43.186Z,96.30
2022-10-08T08:44:46.700Z,95.80
2022-10-08T08:48:33.078Z,94.80
2022-10-08T08:52:21.921Z,94.20
2022-10-08T08:56:06.397Z,94.20
2022-10-08T08:59:50.139Z,93.90
2022-10-08T09:03:41.143Z,93.60
2022-10-08T09:07:26.943Z,93.10
2022-10-08T09:11:16.491Z,92.50
2022-10-08T09:15:01.043Z,92.00
2022-10-08T09:18:49.715Z,91.70
2022-10-08T09:22:37.169Z,91.80
2022-10-08T09:26:37.977Z,91.00
2022-10-08T09:30:41.465Z,91.00
2022-10-08T09:34:23.769Z,90.60
2022-10-08T09:38:06.229Z,89.90
2022-10-08T09:42:07.232Z,88.90
2022-10-08T09:45:50.132Z,88.10
2022-10-08T09:49:34.382Z,86.80
2022-10-08T09:53:16.598Z,82.00
2022-10-08T09:57:00.272Z,78.10
2022-10-08T10:00:42.115Z,70.70
2022-10-08T10:04:31.102Z,67.50
2022-10-08T10:08:41.085Z,65.00
2022-10-08T10:12:26.125Z,64.70
2022-10-08T10:16:25.750Z,57.00
2022-10-08T10:20:19.483Z,58.70
2022-10-08T10:24:12.177Z,56.30
2022-10-08T10:28:00.041Z,53.80
2022-10-08T10:31:52.620Z,49.60
2022-10-08T10:35:40.691Z,47.30
2022-10-08T10:39:32.196Z,46.30
2022-10-08T10:43:31.151Z,44.30
2022-10-08T10:47:14.494Z,43.40
2022-10-08T10:51:25.363Z,40.60
2022-10-08T10:55:07.109Z,46.90
2022-10-08T10:59:02.943Z,38.80
2022-10-08T11:02:59.572Z,43.30
2022-10-08T11:06:53.249Z,42.80
2022-10-08T11:11:05.502Z,39.70
2022-10-08T11:15:22.505Z,45.20
2022-10-08T11:19:11.153Z,48.90
2022-10-08T11:23:14.960Z,41.20
2022-10-08T11:27:24.715Z,46.20
2022-10-08T11:31:13.616Z,47.10
2022-10-08T11:35:34.690Z,44.40
2022-10-08T11:39:21.156Z,46.90
2022-10-08T11:43:06.088Z,41.00
2022-10-08T11:46:48.048Z,38.50
2022-10-08T11:50:36.117Z,38.50
2022-10-08T11:54:38.300Z,39.00
2022-10-08T11:58:28.425Z,40.00
2022-10-08T12:02:33.039Z,41.50
2022-10-08T12:06:15.171Z,44.40
2022-10-08T12:10:23.146Z,36.60
2022-10-08T12:14:17.200Z,39.10
2022-10-08T12:18:26.031Z,39.90
2022-10-08T12:22:25.258Z,36.60
2022-10-08T12:26:09.116Z,39.30
2022-10-08T12:30:16.425Z,34.90
2022-10-08T12:34:17.098Z,40.30
2022-10-08T12:38:13.676Z,33.60
2022-10-08T12:42:13.806Z,38.90
2022-10-08T12:46:11.874Z,36.20
2022-10-08T12:49:59.555Z,38.90
2022-10-08T12:53:48.187Z,37.20
2022-10-08T12:57:39.361Z,35.50
2022-10-08T13:01:21.986Z,34.50
2022-10-08T13:05:25.783Z,33.40
2022-10-08T13:09:25.484Z,37.70
2022-10-08T13:13:32.811Z,36.10
2022-10-08T13:17:31.680Z,37.20
2022-10-08T13:21:36.769Z,35.40
2022-10-08T13:25:37.623Z,36.20
2022-10-08T13:29:22.610Z,38.60
2022-10-08T13:33:11.459Z,34.00
2022-10-08T13:36:56.453Z,32.40
2022-10-08T13:40:38.362Z,32.60
2022-10-08T13:44:20.466Z,31.90
2022-10-08T13:48:02.440Z,31.60
2022-10-08T13:51:44.271Z,31.60
2022-10-08T13:55:32.442Z,28.40
2022-10-08T13:59:14.384Z,29.80
2022-10-08T14:02:56.338Z,29.30
2022-10-08T14:06:39.283Z,30.00
2022-10-08T14:10:22.158Z,29.50
2022-10-08T14:14:04.066Z,29.80
2022-10-08T14:17:46.462Z,29.70
2022-10-08T14:21:28.492Z,28.60
2022-10-08T14:25:15.189Z,28.60
2022-10-08T14:28:58.568Z,28.80
2022-10-08T14:32:40.523Z,28.10
2022-10-08T14:36:27.810Z,28.60
2022-10-08T14:40:18.811Z,28.40
2022-10-08T14:44:00.864Z,29.40
2022-10-08T14:47:42.738Z,29.00
2022-10-08T14:51:24.609Z,28.90
2022-10-08T14:55:07.021Z,28.70
2022-10-08T14:58:52.123Z,28.50
2022-10-08T15:02:37.812Z,28.10
2022-10-08T15:06:19.651Z,27.90
2022-10-08T15:10:01.563Z,35.60
2022-10-08T15:13:43.396Z,28.40
2022-10-08T15:17:25.328Z,29.10
2022-10-08T15:21:07.463Z,28.80
2022-10-08T15:24:49.353Z,30.00
2022-10-08T15:28:32.015Z,30.80
2022-10-08T15:32:15.934Z,31.40
2022-10-08T15:35:57.943Z,31.80
2022-10-08T15:39:39.830Z,32.10
2022-10-08T15:43:29.046Z,32.40
2022-10-08T15:47:12.170Z,32.60
2022-10-08T15:51:00.519Z,33.00
2022-10-08T15:54:42.945Z,34.90
2022-10-08T15:58:48.890Z,35.40
2022-10-08T16:02:26.739Z,36.10
2022-10-08T16:06:10.970Z,37.20
2022-10-08T16:09:52.828Z,38.30
2022-10-08T16:13:37.236Z,39.00
2022-10-08T16:17:44.020Z,40.80
2022-10-08T16:21:27.344Z,41.40
2022-10-08T16:25:09.447Z,42.80
2022-10-08T16:28:56.997Z,43.50
2022-10-08T16:32:38.865Z,43.70
2022-10-08T16:36:20.807Z,44.50
2022-10-08T16:40:04.023Z,45.20
2022-10-08T16:43:49.313Z,44.90
2022-10-08T16:47:32.288Z,45.90
2022-10-08T16:51:14.383Z,46.10
2022-10-08T16:54:56.309Z,46.90
2022-10-08T16:58:39.185Z,47.10
2022-10-08T17:02:25.679Z,47.70
2022-10-08T17:06:09.967Z,48.30
2022-10-08T17:09:53.051Z,48.80
2022-10-08T17:13:35.000Z,49.40
2022-10-08T17:17:16.866Z,50.70
2022-10-08T17:21:00.050Z,50.30
2022-10-08T17:24:42.514Z,50.60
2022-10-08T17:28:33.279Z,51.10
2022-10-08T17:32:15.130Z,51.50
2022-10-08T17:36:24.663Z,52.20
2022-10-08T17:40:08.439Z,51.80
2022-10-08T17:43:50.939Z,53.10
2022-10-08T17:47:32.754Z,53.60
2022-10-08T17:51:16.931Z,53.70
2022-10-08T17:54:58.748Z,54.10
2022-10-08T17:58:40.645Z,54.50
2022-10-08T18:02:23.335Z,55.00
2022-10-08T18:06:06.478Z,55.70
2022-10-08T18:09:50.011Z,55.80
2022-10-08T18:13:32.167Z,56.20
2022-10-08T18:17:13.976Z,56.20
2022-10-08T18:20:58.854Z,56.40
2022-10-08T18:24:40.692Z,56.70
2022-10-08T18:28:22.578Z,57.20
2022-10-08T18:32:04.472Z,57.30
2022-10-08T18:35:46.280Z,57.60
2022-10-08T18:39:28.779Z,58.00
2022-10-08T18:43:10.723Z,58.20
2022-10-08T18:46:52.581Z,58.30
2022-10-08T18:50:34.391Z,58.50
2022-10-08T18:54:16.485Z,59.00
2022-10-08T18:57:58.291Z,59.40
2022-10-08T19:01:41.631Z,59.80
2022-10-08T19:05:23.541Z,60.20
2022-10-08T19:09:06.462Z,60.50
2022-10-08T19:12:48.622Z,60.70
2022-10-08T19:16:31.247Z,61.10
2022-10-08T19:20:13.145Z,61.60
2022-10-08T19:23:57.642Z,61.90
2022-10-08T19:27:40.683Z,62.50
2022-10-08T19:31:33.848Z,62.80
2022-10-08T19:35:15.795Z,62.50
2022-10-08T19:39:06.721Z,62.90
2022-10-08T19:42:48.853Z,62.80
2022-10-08T19:46:32.179Z,63.00
2022-10-08T19:50:14.094Z,63.20
2022-10-08T19:53:56.112Z,63.40
2022-10-08T19:57:37.919Z,63.70
2022-10-08T20:01:22.150Z,63.90
2022-10-08T20:05:04.292Z,64.10
2022-10-08T20:08:46.276Z,64.10
2022-10-08T20:12:28.253Z,64.20
2022-10-08T20:16:13.236Z,64.30
2022-10-08T20:20:05.303Z,64.50
2022-10-08T20:23:57.416Z,64.70
2022-10-08T20:27:39.342Z,64.70
2022-10-08T20:31:24.358Z,64.90
2022-10-08T20:35:07.032Z,65.10
2022-10-08T20:38:48.952Z,65.00
2022-10-08T20:42:32.274Z,65.40
2022-10-08T20:46:15.538Z,65.60
2022-10-08T20:49:57.530Z,65.80
2022-10-08T20:53:39.917Z,65.90
2022-10-08T20:57:21.735Z,66.00
2022-10-08T21:01:16.414Z,66.10
2022-10-08T21:04:58.365Z,66.10
2022-10-08T21:08:42.208Z,66.20
2022-10-08T21:12:24.043Z,66.40
2022-10-08T21:16:12.913Z,66.50
2022-10-08T21:19:54.916Z,66.50
2022-10-08T21:23:37.362Z,66.80
2022-10-08T21:27:19.211Z,66.90
2022-10-08T21:31:04.100Z,66.70
2022-10-08T21:34:46.423Z,66.80
2022-10-08T21:38:28.471Z,66.90
2022-10-08T21:42:10.397Z,67.30
2022-10-08T21:45:56.958Z,67.50
2022-10-08T21:49:38.851Z,67.70
2022-10-08T21:53:20.651Z,67.70
2022-10-08T21:57:02.514Z,67.90
2022-10-08T22:00:44.446Z,68.30
2022-10-08T22:04:26.452Z,68.30
2022-10-08T22:08:08.246Z,68.50
2022-10-08T22:11:51.832Z,68.70
2022-10-08T22:15:33.656Z,68.80
2022-10-08T22:19:15.721Z,69.00
2022-10-08T22:22:57.757Z,68.90
2022-10-08T22:26:42.668Z,69.00
2022-10-08T22:30:25.146Z,69.20
2022-10-08T22:34:09.600Z,69.40
2022-10-08T22:37:51.406Z,69.40
2022-10-08T22:45:13.675Z,69.40
2022-10-08T22:49:00.213Z,69.20
2022-10-08T22:52:42.065Z,69.20
2022-10-08T22:56:27.219Z,69.40
2022-10-08T23:00:10.392Z,69.30
2022-10-08T23:03:53.254Z,69.40
2022-10-08T23:07:35.086Z,69.70
2022-10-08T23:11:16.971Z,69.80
2022-10-08T23:14:58.807Z,69.90
2022-10-08T23:18:43.554Z,70.00
2022-10-08T23:22:25.463Z,70.40
2022-10-08T23:26:08.384Z,70.50
2022-10-08T23:29:50.245Z,70.70
2022-10-08T23:33:32.434Z,71.00
2022-10-08T23:37:14.276Z,71.10
2022-10-08T23:41:00.098Z,71.30
2022-10-08T23:44:42.013Z,71.50
2022-10-08T23:48:23.934Z,71.60
2022-10-08T23:52:05.990Z,71.80
2022-10-08T23:55:48.029Z,71.80
2022-10-08T23:59:29.922Z,71.70
